createdAt,value
2023-03-16T00:01:14.863Z,101329.86
2023-03-16T00:03:45.107Z,101336.12
2023-03-16T00:06:14.425Z,101331.34
2023-03-16T00:08:44.717Z,101335.42
2023-03-16T00:11:14.093Z,101337.98
2023-03-16T00:13:43.948Z,101342.45
2023-03-16T00:16:17.252Z,101344.55
2023-03-16T00:18:46.712Z,101344.63
2023-03-16T00:21:16.201Z,101342.11
2023-03-16T00:23:45.468Z,101340.11
2023-03-16T00:26:15.256Z,101336.44
2023-03-16T00:28:44.528Z,101339.77
2023-03-16T00:31:14.064Z,101336.30
2023-03-16T00:33:44.219Z,101334.92
2023-03-16T00:36:13.963Z,101334.05
2023-03-16T00:38:45.368Z,101337.71
2023-03-16T00:41:17.089Z,101339.14
2023-03-16T00:43:48.971Z,101334.16
2023-03-16T00:46:18.944Z,101336.36
2023-03-16T00:48:48.329Z,101329.89
2023-03-16T00:51:19.845Z,101329.70
2023-03-16T00:53:49.223Z,101326.02
2023-03-16T00:56:19.690Z,101325.77
2023-03-16T00:58:49.020Z,101321.27
2023-03-16T01:01:20.358Z,101324.46
2023-03-16T01:03:50.787Z,101329.88
2023-03-16T01:06:21.627Z,101327.39
2023-03-16T01:08:51.850Z,101329.95
2023-03-16T01:11:24.110Z,101331.64
2023-03-16T01:13:55.037Z,101335.02
2023-03-16T01:16:24.414Z,101334.84
2023-03-16T01:18:55.308Z,101342.01
2023-03-16T01:21:26.220Z,101346.33
2023-03-16T01:23:55.987Z,101348.32
2023-03-16T01:26:25.349Z,101347.73
2023-03-16T01:28:54.952Z,101348.02
2023-03-16T01:31:26.293Z,101349.21
2023-03-16T01:33:55.802Z,101355.02
2023-03-16T01:36:29.006Z,101352.95
2023-03-16T01:39:07.114Z,101356.85
2023-03-16T01:41:46.247Z,101355.41
2023-03-16T01:44:19.034Z,101353.30
2023-03-16T01:46:48.425Z,101351.66
2023-03-16T01:49:23.328Z,101351.86
2023-03-16T01:51:56.392Z,101350.27
2023-03-16T01:54:31.559Z,101357.58
2023-03-16T01:57:07.855Z,101363.73
2023-03-16T01:59:42.950Z,101360.31
2023-03-16T02:02:14.121Z,101361.27
2023-03-16T02:04:50.105Z,101364.52
2023-03-16T02:07:24.191Z,101364.42
2023-03-16T02:09:58.095Z,101361.98
2023-03-16T02:12:29.681Z,101367.48
2023-03-16T02:15:00.038Z,101368.23
2023-03-16T02:17:33.218Z,101372.34
2023-03-16T02:20:18.055Z,101376.25
2023-03-16T02:22:53.680Z,101378.90
2023-03-16T02:25:25.400Z,101377.25
2023-03-16T02:28:04.220Z,101380.77
2023-03-16T02:30:35.164Z,101380.05
2023-03-16T02:33:05.900Z,101383.16
2023-03-16T02:35:36.035Z,101383.60
2023-03-16T02:38:05.648Z,101386.45
2023-03-16T02:40:39.402Z,101387.90
2023-03-16T02:43:18.038Z,101390.98
2023-03-16T02:45:54.188Z,101393.48
2023-03-16T02:48:31.691Z,101395.41
2023-03-16T02:51:02.128Z,101396.38
2023-03-16T02:53:31.389Z,101399.23
2023-03-16T02:56:03.017Z,101403.27
2023-03-16T02:58:33.803Z,101405.02
2023-03-16T03:01:04.875Z,101403.05
2023-03-16T03:03:35.685Z,101405.02
2023-03-16T03:06:05.499Z,101409.69
2023-03-16T03:08:37.857Z,101405.72
2023-03-16T03:11:08.215Z,101398.20
2023-03-16T03:13:38.777Z,101399.48
2023-03-16T03:16:09.071Z,101404.33
2023-03-16T03:18:38.989Z,101402.89
2023-03-16T03:21:08.427Z,101406.73
2023-03-16T03:23:38.358Z,101408.52
2023-03-16T03:26:10.193Z,101412.86
2023-03-16T03:28:41.108Z,101415.13
2023-03-16T03:31:15.665Z,101414.38
2023-03-16T03:33:46.334Z,101416.41
2023-03-16T03:36:15.882Z,101415.34
2023-03-16T03:38:47.060Z,101415.23
2023-03-16T03:41:17.041Z,101417.42
2023-03-16T03:43:46.475Z,101412.19
2023-03-16T03:46:18.051Z,101410.36
2023-03-16T03:48:47.454Z,101409.33
2023-03-16T03:51:16.899Z,101410.96
2023-03-16T03:54:01.740Z,101414.52
2023-03-16T03:56:49.312Z,101412.25
2023-03-16T03:59:19.839Z,101413.33
2023-03-16T04:02:22.434Z,101420.01
2023-03-16T04:04:54.717Z,101418.87
2023-03-16T04:07:24.829Z,101420.91
2023-03-16T04:09:56.498Z,101425.42
2023-03-16T04:12:37.358Z,101426.66
2023-03-16T04:15:11.027Z,101421.83
2023-03-16T04:17:48.177Z,101426.39
2023-03-16T04:20:19.390Z,101427.51
2023-03-16T04:22:49.365Z,101425.39
2023-03-16T04:25:20.241Z,101429.00
2023-03-16T04:27:50.998Z,101424.88
2023-03-16T04:30:23.366Z,101427.42
2023-03-16T04:32:56.408Z,101425.92
2023-03-16T04:35:26.451Z,101426.90
2023-03-16T04:37:59.059Z,101427.11
2023-03-16T04:40:35.751Z,101421.30
2023-03-16T04:43:11.376Z,101422.14
2023-03-16T04:45:41.407Z,101424.34
2023-03-16T04:48:10.889Z,101422.40
2023-03-16T04:50:40.468Z,101419.51
2023-03-16T04:53:09.798Z,101418.83
2023-03-16T04:55:39.220Z,101424.92
2023-03-16T04:58:09.399Z,101429.70
2023-03-16T05:00:41.293Z,101431.85
2023-03-16T05:03:21.212Z,101436.19
2023-03-16T05:05:51.614Z,101443.20
2023-03-16T05:08:21.819Z,101439.05
2023-03-16T05:10:56.199Z,101449.07
2023-03-16T05:13:26.125Z,101455.40
2023-03-16T05:15:56.083Z,101450.91
2023-03-16T05:18:31.089Z,101449.90
2023-03-16T05:21:00.402Z,101447.19
2023-03-16T05:23:35.361Z,101445.85
2023-03-16T05:26:08.234Z,101445.17
2023-03-16T05:28:39.496Z,101440.96
2023-03-16T05:31:14.446Z,101441.27
2023-03-16T05:33:47.717Z,101442.73
2023-03-16T05:36:21.186Z,101447.77
2023-03-16T05:38:54.383Z,101451.73
2023-03-16T05:41:33.236Z,101454.95
2023-03-16T05:44:07.121Z,101461.63
2023-03-16T05:46:48.189Z,101469.68
2023-03-16T05:49:18.424Z,101469.08
2023-03-16T05:51:49.291Z,101473.27
2023-03-16T05:54:19.466Z,101476.41
2023-03-16T05:56:48.960Z,101469.25
2023-03-16T05:59:18.437Z,101469.33
2023-03-16T06:01:52.300Z,101468.00
2023-03-16T06:04:22.794Z,101471.98
2023-03-16T06:06:52.524Z,101474.59
2023-03-16T06:09:24.924Z,101475.85
2023-03-16T06:11:55.247Z,101476.55
2023-03-16T06:14:24.569Z,101481.00
2023-03-16T06:16:54.544Z,101484.27
2023-03-16T06:19:24.108Z,101479.64
2023-03-16T06:21:57.428Z,101477.49
2023-03-16T06:24:26.840Z,101479.59
2023-03-16T06:26:56.255Z,101484.86
2023-03-16T06:29:29.201Z,101485.59
2023-03-16T06:31:58.688Z,101484.17
2023-03-16T06:34:28.735Z,101494.55
2023-03-16T06:36:58.472Z,101498.20
2023-03-16T06:39:28.025Z,101498.99
2023-03-16T06:41:57.589Z,101498.61
2023-03-16T06:44:27.275Z,101491.29
2023-03-16T06:47:04.861Z,101487.98
2023-03-16T06:49:34.424Z,101491.73
2023-03-16T06:52:04.330Z,101488.92
2023-03-16T06:54:34.839Z,101485.67
2023-03-16T06:57:04.637Z,101491.56
2023-03-16T06:59:34.456Z,101491.33
2023-03-16T07:02:06.006Z,101491.68
2023-03-16T07:04:35.424Z,101497.19
2023-03-16T07:07:05.154Z,101500.97
2023-03-16T07:09:38.209Z,101501.49
2023-03-16T07:12:10.123Z,101503.99
2023-03-16T07:14:41.522Z,101500.21
2023-03-16T07:17:11.963Z,101503.10
2023-03-16T07:19:41.348Z,101498.54
2023-03-16T07:22:12.193Z,101501.79
2023-03-16T07:24:43.654Z,101506.11
2023-03-16T07:27:13.234Z,101505.16
2023-03-16T07:29:43.294Z,101511.48
2023-03-16T07:32:13.087Z,101512.16
2023-03-16T07:34:42.849Z,101514.20
2023-03-16T07:37:12.784Z,101514.88
2023-03-16T07:39:43.644Z,101515.86
2023-03-16T07:42:22.204Z,101515.60
2023-03-16T07:45:08.933Z,101515.54
2023-03-16T07:47:38.981Z,101513.29
2023-03-16T07:50:18.739Z,101511.41
2023-03-16T07:52:49.428Z,101514.80
2023-03-16T07:55:19.254Z,101514.38
2023-03-16T07:57:49.299Z,101509.21
2023-03-16T08:00:24.068Z,101514.72
2023-03-16T08:02:55.707Z,101514.80
2023-03-16T08:05:27.702Z,101511.14
2023-03-16T08:08:01.258Z,101512.68
2023-03-16T08:10:31.893Z,101518.56
2023-03-16T08:13:06.002Z,101514.79
2023-03-16T08:15:35.411Z,101514.02
2023-03-16T08:18:13.208Z,101515.59
2023-03-16T08:20:44.068Z,101515.00
2023-03-16T08:23:16.116Z,101521.62
2023-03-16T08:25:45.645Z,101520.84
2023-03-16T08:28:21.654Z,101520.05
2023-03-16T08:30:54.899Z,101522.83
2023-03-16T08:33:31.550Z,101520.03
2023-03-16T08:36:02.113Z,101516.14
2023-03-16T08:38:32.410Z,101517.69
2023-03-16T08:41:05.414Z,101525.75
2023-03-16T08:43:36.958Z,101521.91
2023-03-16T08:46:07.304Z,101518.66
2023-03-16T08:48:57.456Z,101515.89
2023-03-16T08:51:28.931Z,101515.76
2023-03-16T08:53:59.562Z,101520.83
2023-03-16T08:56:29.917Z,101523.80
2023-03-16T08:58:59.997Z,101522.23
2023-03-16T09:01:29.165Z,101519.17
2023-03-16T09:03:58.366Z,101514.77
2023-03-16T09:06:28.306Z,101521.03
2023-03-16T09:08:58.249Z,101528.98
2023-03-16T09:11:31.220Z,101525.13
2023-03-16T09:14:00.584Z,101525.29
2023-03-16T09:16:30.383Z,101530.20
2023-03-16T09:19:00.351Z,101531.27
2023-03-16T09:21:30.690Z,101536.91
2023-03-16T09:24:00.527Z,101534.84
2023-03-16T09:26:29.908Z,101533.66
2023-03-16T09:28:59.314Z,101535.98
2023-03-16T09:31:29.273Z,101535.48
2023-03-16T09:33:58.611Z,101539.71
2023-03-16T09:36:28.030Z,101537.30
2023-03-16T09:38:57.337Z,101539.09
2023-03-16T09:41:42.298Z,101546.85
2023-03-16T09:44:27.487Z,101543.80
2023-03-16T09:47:02.220Z,101544.41
2023-03-16T09:49:37.740Z,101538.29
2023-03-16T09:52:20.547Z,101545.35
2023-03-16T09:54:56.327Z,101539.29
2023-03-16T09:57:28.870Z,101546.69
2023-03-16T10:00:02.658Z,101547.69
2023-03-16T10:03:01.192Z,101552.06
2023-03-16T10:05:32.377Z,101556.30
2023-03-16T10:08:17.110Z,101556.30
2023-03-16T10:11:06.206Z,101559.05
2023-03-16T10:13:42.939Z,101558.13
2023-03-16T10:16:18.778Z,101559.45
2023-03-16T10:18:50.547Z,101562.34
2023-03-16T10:21:21.082Z,101566.98
2023-03-16T10:23:52.214Z,101565.16
2023-03-16T10:26:27.198Z,101566.24
2023-03-16T10:28:56.982Z,101565.78
2023-03-16T10:31:27.685Z,101570.64
2023-03-16T10:34:05.225Z,101571.48
2023-03-16T10:36:38.092Z,101571.23
2023-03-16T10:39:09.964Z,101572.55
2023-03-16T10:41:41.789Z,101580.62
2023-03-16T10:44:15.120Z,101578.59
2023-03-16T10:46:47.835Z,101579.29
2023-03-16T10:49:27.856Z,101585.61
2023-03-16T10:51:59.435Z,101587.27
2023-03-16T10:54:34.798Z,101590.22
2023-03-16T10:57:20.284Z,101590.05
2023-03-16T10:59:51.767Z,101594.36
2023-03-16T11:02:25.027Z,101596.52
2023-03-16T11:04:56.712Z,101601.88
2023-03-16T11:07:27.258Z,101601.59
2023-03-16T11:09:58.168Z,101603.92
2023-03-16T11:12:31.466Z,101605.57
2023-03-16T11:15:07.458Z,101607.55
2023-03-16T11:17:42.719Z,101608.36
2023-03-16T11:20:17.821Z,101607.41
2023-03-16T11:22:48.329Z,101610.21
2023-03-16T11:25:26.009Z,101614.30
2023-03-16T11:28:03.589Z,101617.77
2023-03-16T11:30:39.035Z,101617.34
2023-03-16T11:33:11.714Z,101617.73
2023-03-16T11:35:58.634Z,101614.00
2023-03-16T11:38:35.589Z,101616.45
2023-03-16T11:41:09.863Z,101615.33
2023-03-16T11:43:54.392Z,101613.17
2023-03-16T11:46:27.534Z,101611.79
2023-03-16T11:49:24.540Z,101609.08
2023-03-16T11:52:04.707Z,101610.41
2023-03-16T11:54:45.508Z,101608.88
2023-03-16T11:57:28.999Z,101608.23
2023-03-16T12:00:14.393Z,101605.95
2023-03-16T12:02:59.473Z,101606.98
2023-03-16T12:05:45.072Z,101606.73
2023-03-16T12:08:27.201Z,101602.60
2023-03-16T12:11:02.017Z,101602.82
2023-03-16T12:13:41.168Z,101605.11
2023-03-16T12:16:19.320Z,101605.16
2023-03-16T12:18:53.128Z,101600.97
2023-03-16T12:21:26.571Z,101600.61
2023-03-16T12:24:01.083Z,101602.95
2023-03-16T12:26:36.614Z,101604.86
2023-03-16T12:29:20.883Z,101606.85
2023-03-16T12:31:57.559Z,101609.05
2023-03-16T12:34:33.992Z,101608.34
2023-03-16T12:37:23.018Z,101605.77
2023-03-16T12:40:08.809Z,101605.91
2023-03-16T12:42:51.201Z,101601.15
2023-03-16T12:45:29.515Z,101601.78
2023-03-16T12:48:09.177Z,101606.79
2023-03-16T12:50:50.277Z,101608.98
2023-03-16T12:53:41.644Z,101608.23
2023-03-16T12:56:14.757Z,101610.09
2023-03-16T12:58:47.914Z,101616.33
2023-03-16T13:01:20.373Z,101618.95
2023-03-16T13:03:58.440Z,101616.27
2023-03-16T13:06:36.450Z,101619.48
2023-03-16T13:09:07.194Z,101617.52
2023-03-16T13:11:49.544Z,101623.24
2023-03-16T13:14:34.905Z,101625.64
2023-03-16T13:17:24.923Z,101623.20
2023-03-16T13:20:31.302Z,101622.73
2023-03-16T13:23:22.726Z,101626.67
2023-03-16T13:26:16.223Z,101630.98
2023-03-16T13:28:52.210Z,101635.66
2023-03-16T13:31:25.674Z,101635.38
2023-03-16T13:33:59.356Z,101639.27
2023-03-16T13:36:29.866Z,101641.67
2023-03-16T13:39:18.734Z,101643.41
2023-03-16T13:42:00.709Z,101648.16
2023-03-16T13:44:31.117Z,101646.01
2023-03-16T13:47:06.851Z,101641.79
2023-03-16T13:49:44.610Z,101644.60
2023-03-16T13:52:20.430Z,101647.95
2023-03-16T13:54:50.827Z,101645.34
2023-03-16T13:57:24.304Z,101650.58
2023-03-16T14:00:00.501Z,101650.00
2023-03-16T14:02:29.709Z,101649.23
2023-03-16T14:05:09.097Z,101647.75
2023-03-16T14:07:39.248Z,101650.70
2023-03-16T14:10:14.903Z,101652.55
2023-03-16T14:12:52.835Z,101649.73
2023-03-16T14:15:25.464Z,101654.14
2023-03-16T14:18:01.688Z,101656.59
2023-03-16T14:20:33.150Z,101651.65
2023-03-16T14:23:04.448Z,101657.90
2023-03-16T14:25:33.829Z,101658.41
2023-03-16T14:28:07.724Z,101650.71
2023-03-16T14:30:36.873Z,101651.67
2023-03-16T14:33:24.355Z,101651.48
2023-03-16T14:35:57.393Z,101654.95
2023-03-16T14:38:32.283Z,101655.57
2023-03-16T14:41:07.331Z,101661.24
2023-03-16T14:43:38.475Z,101653.49
2023-03-16T14:46:12.354Z,101653.86
2023-03-16T14:48:41.607Z,101655.94
2023-03-16T14:51:14.552Z,101654.28
2023-03-16T14:53:44.210Z,101655.35
2023-03-16T14:56:13.891Z,101656.19
2023-03-16T14:58:43.041Z,101657.66
2023-03-16T15:01:17.260Z,101660.98
2023-03-16T15:03:46.944Z,101658.52
2023-03-16T15:06:16.362Z,101660.35
2023-03-16T15:08:48.320Z,101658.41
2023-03-16T15:11:20.865Z,101664.23
2023-03-16T15:14:03.304Z,101661.98
2023-03-16T15:16:33.602Z,101659.66
2023-03-16T15:19:02.762Z,101658.82
2023-03-16T15:21:32.022Z,101663.25
2023-03-16T15:24:01.405Z,101665.42
2023-03-16T15:26:30.783Z,101669.40
2023-03-16T15:28:59.997Z,101674.27
2023-03-16T15:31:29.270Z,101678.00
2023-03-16T15:33:58.503Z,101676.60
2023-03-16T15:36:27.673Z,101680.91
2023-03-16T15:38:57.090Z,101684.02
2023-03-16T15:41:30.075Z,101685.90
2023-03-16T15:44:02.803Z,101686.79
2023-03-16T15:46:32.117Z,101687.20
2023-03-16T15:49:01.328Z,101692.86
2023-03-16T15:51:31.504Z,101683.93
2023-03-16T15:54:03.041Z,101687.16
2023-03-16T15:56:41.100Z,101687.05
2023-03-16T15:59:17.250Z,101688.40
2023-03-16T16:01:47.945Z,101692.02
2023-03-16T16:04:19.816Z,101696.13
2023-03-16T16:06:53.833Z,101693.95
2023-03-16T16:09:24.039Z,101691.02
2023-03-16T16:11:53.359Z,101693.17
2023-03-16T16:14:27.465Z,101695.79
2023-03-16T16:16:56.717Z,101699.86
2023-03-16T16:19:26.505Z,101705.39
2023-03-16T16:21:55.696Z,101710.09
2023-03-16T16:24:25.303Z,101714.52
2023-03-16T16:26:55.881Z,101718.94
2023-03-16T16:29:30.170Z,101714.60
2023-03-16T16:31:59.526Z,101714.91
2023-03-16T16:34:28.788Z,101716.52
2023-03-16T16:36:58.207Z,101718.80
2023-03-16T16:39:27.881Z,101723.07
2023-03-16T16:41:57.409Z,101731.66
2023-03-16T16:44:30.845Z,101733.10
2023-03-16T16:47:02.871Z,101736.09
2023-03-16T16:49:34.616Z,101736.93
2023-03-16T16:52:04.874Z,101739.45
2023-03-16T16:54:36.324Z,101735.81
2023-03-16T16:57:15.068Z,101741.34
2023-03-16T16:59:46.987Z,101748.10
2023-03-16T17:02:28.264Z,101751.71
2023-03-16T17:04:57.937Z,101756.36
2023-03-16T17:07:27.304Z,101754.62
2023-03-16T17:09:56.923Z,101756.79
2023-03-16T17:12:28.286Z,101758.85
2023-03-16T17:14:57.720Z,101757.02
2023-03-16T17:17:27.387Z,101758.75
2023-03-16T17:19:56.897Z,101761.11
2023-03-16T17:22:27.930Z,101760.77
2023-03-16T17:24:57.973Z,101762.13
2023-03-16T17:27:29.561Z,101766.30
2023-03-16T17:29:58.997Z,101770.32
2023-03-16T17:32:29.277Z,101769.73
2023-03-16T17:35:00.378Z,101773.15
2023-03-16T17:37:29.543Z,101772.77
2023-03-16T17:39:58.779Z,101773.80
2023-03-16T17:42:28.022Z,101777.95
2023-03-16T17:44:57.463Z,101782.96
2023-03-16T17:47:28.016Z,101785.38
2023-03-16T17:49:57.605Z,101785.18
2023-03-16T17:52:29.195Z,101784.56
2023-03-16T17:54:58.595Z,101786.78
2023-03-16T17:57:30.585Z,101786.42
2023-03-16T18:00:01.568Z,101787.42
2023-03-16T18:02:49.486Z,101790.48
2023-03-16T18:05:22.265Z,101790.26
2023-03-16T18:07:52.950Z,101793.58
2023-03-16T18:10:25.393Z,101803.96
2023-03-16T18:12:58.955Z,101807.46
2023-03-16T18:15:32.123Z,101815.42
2023-03-16T18:18:03.954Z,101814.48
2023-03-16T18:20:35.998Z,101817.17
2023-03-16T18:23:16.085Z,101818.66
2023-03-16T18:25:45.979Z,101818.94
2023-03-16T18:28:16.171Z,101819.10
2023-03-16T18:30:47.869Z,101818.02
2023-03-16T18:33:25.850Z,101822.31
2023-03-16T18:35:57.405Z,101821.10
2023-03-16T18:38:31.010Z,101823.58
2023-03-16T18:41:02.006Z,101822.67
2023-03-16T18:43:31.313Z,101824.17
2023-03-16T18:46:00.614Z,101826.32
2023-03-16T18:48:32.826Z,101827.92
2023-03-16T18:51:02.626Z,101832.83
2023-03-16T18:53:32.108Z,101836.67
2023-03-16T18:56:01.266Z,101833.81
2023-03-16T18:58:30.813Z,101837.20
2023-03-16T19:01:03.015Z,101839.37
2023-03-16T19:03:39.081Z,101837.34
2023-03-16T19:06:13.354Z,101831.38
2023-03-16T19:08:42.728Z,101833.13
2023-03-16T19:11:13.173Z,101834.77
2023-03-16T19:13:42.554Z,101840.70
2023-03-16T19:16:17.426Z,101839.13
2023-03-16T19:18:46.675Z,101840.68
2023-03-16T19:21:19.518Z,101837.41
2023-03-16T19:23:55.413Z,101843.39
2023-03-16T19:26:25.288Z,101849.80
2023-03-16T19:28:55.990Z,101850.19
2023-03-16T19:31:27.754Z,101852.42
2023-03-16T19:33:58.069Z,101853.23
2023-03-16T19:36:29.978Z,101852.60
2023-03-16T19:38:59.886Z,101851.75
2023-03-16T19:41:32.314Z,101848.45
2023-03-16T19:44:08.508Z,101848.05
2023-03-16T19:46:38.200Z,101854.73
2023-03-16T19:49:14.767Z,101860.52
2023-03-16T19:51:44.216Z,101865.35
2023-03-16T19:54:21.857Z,101871.04
2023-03-16T19:56:53.054Z,101874.50
2023-03-16T19:59:24.463Z,101881.04
2023-03-16T20:01:53.904Z,101884.73
2023-03-16T20:04:25.379Z,101889.96
2023-03-16T20:06:55.382Z,101886.14
2023-03-16T20:09:24.943Z,101891.67
2023-03-16T20:11:54.828Z,101897.57
2023-03-16T20:14:31.855Z,101893.14
2023-03-16T20:17:01.220Z,101888.54
2023-03-16T20:19:30.759Z,101893.25
2023-03-16T20:22:00.892Z,101892.15
2023-03-16T20:24:30.230Z,101894.34
2023-03-16T20:26:59.463Z,101891.06
2023-03-16T20:29:31.444Z,101889.42
2023-03-16T20:32:02.812Z,101885.77
2023-03-16T20:34:33.012Z,101888.20
2023-03-16T20:37:02.236Z,101882.81
2023-03-16T20:39:31.773Z,101886.05
2023-03-16T20:42:00.994Z,101882.63
2023-03-16T20:44:30.520Z,101880.91
2023-03-16T20:46:59.704Z,101881.67
2023-03-16T20:49:33.632Z,101875.88
2023-03-16T20:52:03.420Z,101873.88
2023-03-16T20:54:32.591Z,101877.26
2023-03-16T20:57:02.233Z,101871.71
2023-03-16T20:59:33.277Z,101869.84
2023-03-16T21:02:03.728Z,101865.75
2023-03-16T21:04:32.967Z,101865.40
2023-03-16T21:07:02.159Z,101864.69
2023-03-16T21:09:32.712Z,101859.95
2023-03-16T21:12:01.952Z,101857.59
2023-03-16T21:14:31.855Z,101863.11
2023-03-16T21:17:01.453Z,101867.41
2023-03-16T21:19:30.793Z,101873.38
2023-03-16T21:21:59.916Z,101874.59
2023-03-16T21:24:29.122Z,101873.08
2023-03-16T21:26:58.334Z,101870.73
2023-03-16T21:29:28.062Z,101876.87
2023-03-16T21:31:57.302Z,101874.02
2023-03-16T21:34:33.255Z,101873.67
2023-03-16T21:37:02.486Z,101874.95
2023-03-16T21:39:32.547Z,101875.26
2023-03-16T21:42:01.705Z,101876.86
2023-03-16T21:44:31.011Z,101883.16
2023-03-16T21:47:01.357Z,101875.50
2023-03-16T21:49:30.611Z,101872.49
2023-03-16T21:52:00.911Z,101875.59
2023-03-16T21:54:30.113Z,101875.52
2023-03-16T21:56:59.586Z,101876.86
2023-03-16T21:59:28.894Z,101872.05
2023-03-16T22:02:02.012Z,101875.76
2023-03-16T22:04:31.842Z,101879.48
2023-03-16T22:07:01.033Z,101883.90
2023-03-16T22:09:32.364Z,101886.92
2023-03-16T22:12:01.585Z,101886.73
2023-03-16T22:14:31.020Z,101889.12
2023-03-16T22:17:00.317Z,101888.02
2023-03-16T22:19:29.811Z,101887.13
2023-03-16T22:21:59.315Z,101894.27
2023-03-16T22:24:30.596Z,101894.98
2023-03-16T22:27:00.165Z,101894.23
2023-03-16T22:29:32.953Z,101895.81
2023-03-16T22:32:06.861Z,101899.15
2023-03-16T22:34:41.975Z,101907.97
2023-03-16T22:37:13.465Z,101910.95
2023-03-16T22:39:43.382Z,101910.13
2023-03-16T22:42:27.036Z,101909.13
2023-03-16T22:44:57.205Z,101906.87
2023-03-16T22:47:31.634Z,101915.11
2023-03-16T22:50:01.213Z,101920.42
2023-03-16T22:52:32.790Z,101928.67
2023-03-16T22:55:03.786Z,101927.64
2023-03-16T22:57:33.383Z,101929.27
2023-03-16T23:00:06.508Z,101932.64
2023-03-16T23:02:35.732Z,101935.02
2023-03-16T23:05:19.131Z,101936.98
2023-03-16T23:07:48.788Z,101939.50
2023-03-16T23:10:20.767Z,101939.47
2023-03-16T23:12:51.723Z,101939.42
2023-03-16T23:15:24.135Z,101935.27
2023-03-16T23:17:54.191Z,101938.98
2023-03-16T23:20:27.427Z,101931.70
2023-03-16T23:22:57.319Z,101929.44
2023-03-16T23:25:27.063Z,101931.86
2023-03-16T23:27:57.816Z,101929.75
2023-03-16T23:30:27.729Z,101925.69
2023-03-16T23:32:57.847Z,101919.06
2023-03-16T23:35:30.478Z,101917.58
2023-03-16T23:38:00.233Z,101908.81
2023-03-16T23:40:31.205Z,101910.52
2023-03-16T23:43:02.593Z,101908.27
2023-03-16T23:45:35.356Z,101903.52
2023-03-16T23:48:07.542Z,101906.08
2023-03-16T23:50:37.860Z,101901.10
2023-03-16T23:53:14.443Z,101897.27
2023-03-16T23:55:45.237Z,101901.16
2023-03-16T23:58:15.556Z,101903.24
